Orlando, FL

9:48 AM EDT on May 23, 2015 (GMT -0400)
Waterford Lakes | | Change Station
CLOSE
Current Station
Personal Weather Station
Location: Orlando, FL
Elevation: 66 ft
Nearby Weather Stations

Elev 66 ft 28.54 °N, 81.18 °W | Updated 42 seconds ago

Partly Cloudy
Partly Cloudy
82.9 °F
Feels Like 90 °F
N
6.8
Wind Variable Wind from West

Today
High -- | Low -- °F
--% Chance of Precip.
Yesterday
High -- | Low -- °F
Precip. -- in
6:30 AM 8:13 PM
Waxing Crescent, 30% visible
Pressure 30.24 in
Visibility 10.0 miles
Clouds Scattered Clouds 2100 ft
Scattered Clouds 2600 ft
Heat Index 90 °F
Dew Point 75 °F
Humidity 78%
Rainfall 0.00 in
Snow Depth Not available.
UV 5 out of 12
Pollen 5.30 out of 12
Air Quality Not available.
Flu Activity Sporadic
SPECI KORL 231342Z 07008KT 10SM SCT021 SCT026 28/22 A3024 RMK AO2 T02830222

More Conditions Fewer Conditions

Pressure 30.24 in
Visibility 10.0 miles
Clouds Scattered Clouds 2100 ft
Scattered Clouds 2600 ft
Heat Index 90 °F
Dew Point 75 °F
Humidity 78%
Rainfall 0.00 in
Snow Depth Not available.
UV 5 out of 12
Pollen 5.30 out of 12
Air Quality Not available.
Flu Activity Sporadic
SPECI KORL 231342Z 07008KT 10SM SCT021 SCT026 28/22 A3024 RMK AO2 T02830222

More Conditions Fewer Conditions

10-Day Weather Forecast

Almanac

Astronomy

May. 23, 2015 Rise Set
Actual Time
Civil Twilight
Nautical Twilight
Astronomical Twilight
Moon
Length of Visible Light
Length of Day
Tomorrow will be .
, % of the Moon is Illuminated

Today's Extremes

State Highs State Lows

Community

WunderPhotos

Upload Photos

1,823,467 photos uploaded!

WunderBlogs® & News

Nearby

Air Quality

  Air Quality AQ Index Pollutant
Not available.

Snow Depth

Station Depth Elevation

Earthquake Activity

City Distance Mag. Time & Date
Minimum magnitude displayed is 2.5.

Coastal Water Temperatures

Place Temperature

Stations

Nearby Weather Stations

Station Location Temp. Windchill Dew Point Humidity Wind Precip. Elev Updated Type